createdAt,value
2016-12-09T00:00:13.817Z,31.57
2016-12-09T00:00:54.341Z,31.77
2016-12-09T00:01:34.870Z,31.67
2016-12-09T00:02:15.378Z,31.69
2016-12-09T00:02:55.940Z,31.59
2016-12-09T00:03:36.488Z,31.67
2016-12-09T00:04:17.007Z,31.67
2016-12-09T00:04:57.584Z,31.57
2016-12-09T00:05:38.208Z,31.67
2016-12-09T00:06:18.800Z,31.87
2016-12-09T00:06:59.395Z,31.77
2016-12-09T00:07:39.998Z,31.67
2016-12-09T00:08:20.601Z,31.69
2016-12-09T00:09:01.139Z,31.78
2016-12-09T00:09:41.679Z,31.87
2016-12-09T00:10:22.214Z,31.87
2016-12-09T00:11:02.782Z,31.67
2016-12-09T00:11:43.317Z,31.78
2016-12-09T00:12:23.889Z,31.77
2016-12-09T00:13:04.437Z,31.67
2016-12-09T00:13:45.058Z,31.77
2016-12-09T00:14:25.609Z,31.96
2016-12-09T00:15:06.196Z,31.77
2016-12-09T00:15:46.759Z,31.88
2016-12-09T00:16:27.265Z,31.96
2016-12-09T00:17:07.853Z,32.06
2016-12-09T00:17:48.359Z,31.87
2016-12-09T00:18:28.909Z,31.77
2016-12-09T00:19:09.449Z,31.78
2016-12-09T00:19:50.027Z,31.98
2016-12-09T00:20:30.558Z,31.96
2016-12-09T00:21:11.119Z,32.06
2016-12-09T00:21:51.695Z,32.07
2016-12-09T00:22:32.229Z,32.06
2016-12-09T00:23:12.762Z,32.15
2016-12-09T00:23:53.318Z,32.07
2016-12-09T00:24:33.860Z,32.15
2016-12-09T00:25:14.418Z,32.07
2016-12-09T00:25:54.977Z,32.17
2016-12-09T00:26:35.548Z,32.15
2016-12-09T00:27:16.075Z,32.25
2016-12-09T00:27:56.592Z,32.15
2016-12-09T00:28:37.114Z,31.98
2016-12-09T00:29:17.675Z,32.26
2016-12-09T00:29:58.203Z,32.15
2016-12-09T00:30:38.721Z,32.17
2016-12-09T00:31:19.273Z,31.98
2016-12-09T00:31:59.790Z,32.15
2016-12-09T00:32:40.347Z,32.17
2016-12-09T00:33:20.849Z,32.17
2016-12-09T00:34:01.398Z,32.17
2016-12-09T00:34:41.908Z,32.26
2016-12-09T00:35:22.453Z,32.15
2016-12-09T00:36:02.988Z,32.17
2016-12-09T00:36:43.541Z,31.98
2016-12-09T00:37:24.079Z,31.98
2016-12-09T00:38:04.621Z,32.26
2016-12-09T00:38:45.169Z,32.15
2016-12-09T00:39:25.743Z,32.15
2016-12-09T00:40:06.280Z,32.17
2016-12-09T00:40:46.820Z,32.15
2016-12-09T00:41:27.364Z,32.26
2016-12-09T00:42:07.921Z,31.98
2016-12-09T00:42:48.458Z,32.15
2016-12-09T00:43:29.034Z,32.07
2016-12-09T00:44:09.636Z,31.98
2016-12-09T00:44:50.210Z,32.07
2016-12-09T00:45:30.761Z,31.98
2016-12-09T00:46:11.352Z,32.07
2016-12-09T00:46:51.883Z,31.96
2016-12-09T00:47:32.429Z,32.06
2016-12-09T00:48:13.041Z,32.07
2016-12-09T00:48:53.523Z,31.88
2016-12-09T00:49:34.061Z,31.98
2016-12-09T00:50:14.623Z,31.96
2016-12-09T00:50:55.202Z,32.07
2016-12-09T00:51:35.723Z,32.06
2016-12-09T00:52:16.239Z,32.07
2016-12-09T00:52:56.781Z,32.06
2016-12-09T00:53:37.384Z,32.07
2016-12-09T00:54:17.930Z,32.06
2016-12-09T00:54:58.470Z,32.07
2016-12-09T00:55:39.028Z,32.06
2016-12-09T00:56:19.573Z,31.87
2016-12-09T00:57:00.127Z,32.07
2016-12-09T00:57:40.634Z,31.98
2016-12-09T00:58:21.148Z,31.87
2016-12-09T00:59:01.786Z,31.98
2016-12-09T00:59:42.304Z,31.98
2016-12-09T01:00:22.890Z,32.06
2016-12-09T01:01:03.417Z,32.07
2016-12-09T01:01:43.955Z,32.07
2016-12-09T01:02:24.477Z,31.98
2016-12-09T01:03:05.008Z,31.96
2016-12-09T01:03:45.549Z,32.06
2016-12-09T01:04:26.157Z,32.07
2016-12-09T01:05:06.771Z,31.88
2016-12-09T01:05:47.283Z,32.07
2016-12-09T01:06:27.843Z,31.98
2016-12-09T01:07:08.357Z,31.96
2016-12-09T01:07:48.882Z,32.07
2016-12-09T01:08:29.420Z,32.07
2016-12-09T01:09:09.936Z,31.98
2016-12-09T01:09:50.519Z,32.07
2016-12-09T01:10:31.039Z,32.06
2016-12-09T01:11:11.613Z,31.96
2016-12-09T01:11:52.160Z,32.07
2016-12-09T01:12:32.709Z,31.98
2016-12-09T01:13:13.252Z,32.15
2016-12-09T01:13:53.773Z,32.07
2016-12-09T01:14:34.295Z,32.07
2016-12-09T01:15:14.845Z,31.96
2016-12-09T01:15:55.367Z,32.06
2016-12-09T01:16:35.945Z,32.07
2016-12-09T01:17:16.492Z,32.07
2016-12-09T01:17:57.034Z,32.06
2016-12-09T01:18:37.705Z,31.88
2016-12-09T01:19:18.251Z,32.06
2016-12-09T01:19:58.840Z,31.98
2016-12-09T01:20:39.353Z,32.07
2016-12-09T01:21:19.978Z,31.88
2016-12-09T01:22:00.520Z,31.88
2016-12-09T01:22:41.122Z,32.07
2016-12-09T01:23:21.683Z,31.87
2016-12-09T01:24:02.183Z,31.87
2016-12-09T01:24:42.721Z,31.88
2016-12-09T01:25:23.277Z,31.88
2016-12-09T01:26:03.812Z,31.88
2016-12-09T01:26:44.434Z,31.78
2016-12-09T01:27:24.986Z,31.88
2016-12-09T01:28:05.528Z,31.88
2016-12-09T01:28:46.112Z,31.98
2016-12-09T01:29:26.639Z,31.98
2016-12-09T01:30:07.164Z,32.07
2016-12-09T01:30:47.739Z,31.98
2016-12-09T01:31:28.272Z,31.96
2016-12-09T01:32:08.846Z,31.98
2016-12-09T01:32:49.403Z,32.07
2016-12-09T01:33:29.986Z,31.78
2016-12-09T01:34:10.538Z,31.98
2016-12-09T01:34:51.091Z,31.69
2016-12-09T01:35:31.661Z,31.88
2016-12-09T01:36:12.215Z,32.06
2016-12-09T01:36:52.737Z,31.78
2016-12-09T01:37:33.266Z,31.98
2016-12-09T01:38:13.805Z,32.17
2016-12-09T01:38:54.371Z,32.26
2016-12-09T01:39:34.931Z,32.36
2016-12-09T01:40:15.451Z,32.17
2016-12-09T01:40:56.050Z,32.07
2016-12-09T01:41:36.606Z,31.98
2016-12-09T01:42:17.137Z,32.17
2016-12-09T01:42:57.715Z,32.25
2016-12-09T01:43:38.313Z,31.96
2016-12-09T01:44:18.838Z,31.96
2016-12-09T01:44:59.369Z,32.17
2016-12-09T01:45:39.888Z,31.98
2016-12-09T01:46:20.454Z,31.96
2016-12-09T01:47:00.991Z,32.36
2016-12-09T01:47:41.570Z,32.34
2016-12-09T01:48:22.143Z,31.98
2016-12-09T01:49:02.685Z,31.87
2016-12-09T01:49:43.216Z,31.98
2016-12-09T01:50:23.784Z,32.17
2016-12-09T01:51:04.306Z,31.78
2016-12-09T01:51:44.875Z,31.98
2016-12-09T01:52:25.400Z,31.96
2016-12-09T01:53:05.945Z,32.15
2016-12-09T01:53:46.441Z,31.78
2016-12-09T01:54:27.009Z,32.06
2016-12-09T01:55:07.552Z,31.98
2016-12-09T01:55:48.095Z,31.77
2016-12-09T01:56:28.616Z,31.87
2016-12-09T01:57:09.187Z,31.87
2016-12-09T01:57:49.795Z,31.88
2016-12-09T01:58:30.235Z,31.88
2016-12-09T01:59:10.767Z,32.17
2016-12-09T01:59:51.277Z,32.07
2016-12-09T02:00:31.826Z,32.07
2016-12-09T02:01:12.368Z,32.26
2016-12-09T02:01:53.086Z,32.26
2016-12-09T02:02:33.664Z,31.98
2016-12-09T02:03:14.237Z,32.26
2016-12-09T02:03:54.770Z,31.98
2016-12-09T02:04:35.355Z,32.26
2016-12-09T02:05:15.891Z,31.98
2016-12-09T02:05:56.409Z,31.98
2016-12-09T02:06:36.951Z,32.17
2016-12-09T02:07:17.503Z,31.88
2016-12-09T02:07:58.060Z,32.17
2016-12-09T02:08:38.614Z,32.25
2016-12-09T02:09:19.133Z,32.25
2016-12-09T02:09:59.681Z,32.25
2016-12-09T02:10:40.273Z,32.15
2016-12-09T02:11:20.862Z,32.07
2016-12-09T02:12:01.435Z,32.07
2016-12-09T02:12:41.975Z,32.25
2016-12-09T02:13:22.606Z,32.06
2016-12-09T02:14:03.124Z,32.17
2016-12-09T02:14:43.672Z,32.17
2016-12-09T02:15:24.217Z,32.26
2016-12-09T02:16:04.758Z,32.26
2016-12-09T02:16:45.303Z,32.26
2016-12-09T02:17:25.895Z,32.15
2016-12-09T02:18:06.458Z,32.17
2016-12-09T02:18:46.990Z,32.17
2016-12-09T02:19:27.517Z,32.26
2016-12-09T02:20:08.097Z,32.26
2016-12-09T02:20:48.678Z,32.26
2016-12-09T02:21:29.239Z,32.17
2016-12-09T02:22:09.764Z,32.07
2016-12-09T02:22:50.301Z,32.06
2016-12-09T02:23:30.813Z,32.26
2016-12-09T02:24:11.350Z,32.17
2016-12-09T02:24:52.003Z,32.07
2016-12-09T02:25:32.532Z,32.07
2016-12-09T02:26:13.048Z,31.98
2016-12-09T02:26:53.579Z,32.07
2016-12-09T02:27:34.141Z,32.06
2016-12-09T02:28:14.700Z,32.07
2016-12-09T02:28:55.260Z,32.07
2016-12-09T02:29:35.824Z,31.88
2016-12-09T02:30:16.341Z,31.98
2016-12-09T02:30:56.937Z,31.88
2016-12-09T02:31:37.465Z,31.88
2016-12-09T02:32:17.983Z,31.98
2016-12-09T02:32:58.618Z,32.17
2016-12-09T02:33:39.116Z,32.07
2016-12-09T02:34:19.651Z,31.88
2016-12-09T02:35:00.193Z,31.98
2016-12-09T02:35:40.703Z,31.98
2016-12-09T02:36:21.243Z,32.26
2016-12-09T02:37:01.866Z,32.17
2016-12-09T02:37:42.416Z,32.17
2016-12-09T02:38:22.994Z,32.17
2016-12-09T02:39:03.508Z,31.98
2016-12-09T02:39:44.038Z,32.07
2016-12-09T02:40:24.563Z,32.07
2016-12-09T02:41:05.093Z,32.17
2016-12-09T02:41:45.622Z,32.26
2016-12-09T02:42:26.180Z,32.07
2016-12-09T02:43:06.784Z,32.26
2016-12-09T02:43:47.279Z,32.36
2016-12-09T02:44:27.833Z,32.36
2016-12-09T02:45:08.356Z,32.26
2016-12-09T02:45:48.873Z,32.07
2016-12-09T02:46:29.386Z,32.17
2016-12-09T02:47:09.946Z,32.46
2016-12-09T02:47:50.451Z,32.07
2016-12-09T02:48:30.977Z,32.34
2016-12-09T02:49:11.558Z,32.56
2016-12-09T02:49:52.073Z,32.26
2016-12-09T02:50:32.586Z,32.25
2016-12-09T02:51:13.128Z,32.26
2016-12-09T02:51:53.667Z,32.17
2016-12-09T02:52:34.184Z,32.54
2016-12-09T02:53:14.710Z,32.64
2016-12-09T02:53:55.215Z,32.56
2016-12-09T02:54:35.724Z,32.56
2016-12-09T02:55:16.237Z,32.54
2016-12-09T02:55:56.772Z,32.56
2016-12-09T02:56:37.325Z,32.56
2016-12-09T02:57:17.882Z,32.25
2016-12-09T02:57:58.438Z,32.36
2016-12-09T02:58:38.991Z,32.36
2016-12-09T02:59:19.533Z,32.26
2016-12-09T03:00:00.089Z,32.17
2016-12-09T03:00:40.593Z,32.25
2016-12-09T03:01:21.135Z,32.17
2016-12-09T03:02:01.677Z,32.56
2016-12-09T03:02:42.231Z,32.26
2016-12-09T03:03:22.761Z,32.17
2016-12-09T03:04:03.293Z,32.46
2016-12-09T03:04:43.829Z,32.65
2016-12-09T03:05:24.351Z,32.34
2016-12-09T03:06:04.857Z,32.46
2016-12-09T03:06:45.375Z,32.46
2016-12-09T03:07:25.898Z,32.36
2016-12-09T03:08:06.447Z,32.36
2016-12-09T03:08:46.980Z,32.34
2016-12-09T03:09:27.516Z,32.26
2016-12-09T03:10:08.051Z,32.26
2016-12-09T03:10:48.594Z,32.36
2016-12-09T03:11:29.165Z,32.36
2016-12-09T03:12:09.689Z,32.36
2016-12-09T03:12:50.238Z,32.36
2016-12-09T03:13:30.794Z,32.36
2016-12-09T03:14:11.346Z,32.26
2016-12-09T03:14:51.896Z,32.46
2016-12-09T03:15:32.405Z,32.46
2016-12-09T03:16:12.914Z,32.36
2016-12-09T03:16:53.411Z,32.36
2016-12-09T03:17:33.894Z,32.46
2016-12-09T03:18:14.372Z,32.17
2016-12-09T03:18:54.849Z,32.36
2016-12-09T03:19:35.348Z,32.65
2016-12-09T03:20:15.810Z,32.75
2016-12-09T03:20:56.269Z,32.56
2016-12-09T03:21:36.734Z,33.03
2016-12-09T03:22:17.228Z,32.82
2016-12-09T03:22:57.660Z,32.75
2016-12-09T03:23:38.147Z,32.65
2016-12-09T03:24:18.634Z,32.75
2016-12-09T03:24:59.103Z,32.84
2016-12-09T03:25:39.589Z,32.65
2016-12-09T03:26:20.108Z,32.75
2016-12-09T03:27:00.604Z,32.84
2016-12-09T03:27:41.061Z,32.84
2016-12-09T03:28:21.517Z,32.84
2016-12-09T03:29:01.981Z,32.84
2016-12-09T03:29:42.434Z,32.65
2016-12-09T03:30:22.919Z,32.75
2016-12-09T03:31:03.366Z,32.65
2016-12-09T03:31:43.866Z,32.84
2016-12-09T03:32:24.351Z,32.65
2016-12-09T03:33:04.896Z,32.84
2016-12-09T03:33:45.413Z,32.94
2016-12-09T03:34:25.953Z,32.46
2016-12-09T03:35:06.488Z,32.56
2016-12-09T03:35:47.032Z,32.56
2016-12-09T03:36:27.593Z,32.56
2016-12-09T03:37:08.133Z,32.46
2016-12-09T03:37:48.672Z,32.07
2016-12-09T03:38:29.207Z,32.56
2016-12-09T03:39:09.756Z,32.65
2016-12-09T03:39:50.296Z,32.75
2016-12-09T03:40:30.840Z,32.56
2016-12-09T03:41:11.366Z,32.65
2016-12-09T03:41:51.874Z,32.07
2016-12-09T03:42:32.365Z,32.56
2016-12-09T03:43:12.842Z,32.84
2016-12-09T03:43:53.331Z,32.75
2016-12-09T03:44:33.813Z,32.75
2016-12-09T03:45:14.283Z,32.84
2016-12-09T03:45:54.776Z,32.07
2016-12-09T03:46:35.260Z,32.36
2016-12-09T03:47:15.730Z,32.56
2016-12-09T03:47:56.197Z,32.75
2016-12-09T03:48:36.659Z,33.03
2016-12-09T03:49:17.124Z,32.36
2016-12-09T03:49:57.603Z,32.26
2016-12-09T03:50:38.069Z,32.75
2016-12-09T03:51:18.544Z,32.56
2016-12-09T03:51:59.019Z,32.44
2016-12-09T03:52:39.526Z,32.46
2016-12-09T03:53:20.008Z,32.94
2016-12-09T03:54:00.549Z,32.94
2016-12-09T03:54:41.077Z,32.84
2016-12-09T03:55:21.624Z,32.75
2016-12-09T03:56:02.145Z,32.65
2016-12-09T03:56:42.665Z,32.75
2016-12-09T03:57:23.206Z,32.94
2016-12-09T03:58:03.771Z,32.84
2016-12-09T03:58:44.319Z,32.94
2016-12-09T03:59:24.850Z,32.84
2016-12-09T04:00:05.409Z,33.03
2016-12-09T04:00:45.907Z,33.03
2016-12-09T04:01:26.425Z,32.84
2016-12-09T04:02:06.978Z,32.94
2016-12-09T04:02:47.508Z,32.94
2016-12-09T04:03:28.044Z,33.33
2016-12-09T04:04:08.565Z,32.84
2016-12-09T04:04:49.106Z,32.75
2016-12-09T04:05:29.622Z,32.75
2016-12-09T04:06:10.164Z,32.75
2016-12-09T04:06:50.699Z,32.75
2016-12-09T04:07:31.223Z,32.94
2016-12-09T04:08:11.743Z,32.94
2016-12-09T04:08:52.265Z,32.94
2016-12-09T04:09:32.777Z,32.75
2016-12-09T04:10:14.067Z,32.94
2016-12-09T04:10:53.831Z,32.92
2016-12-09T04:11:34.393Z,32.73
2016-12-09T04:12:14.943Z,32.84
2016-12-09T04:12:55.472Z,32.84
2016-12-09T04:13:36.024Z,32.94
2016-12-09T04:14:16.551Z,32.84
2016-12-09T04:14:57.075Z,32.82
2016-12-09T04:15:37.602Z,32.84
2016-12-09T04:16:18.131Z,32.75
2016-12-09T04:16:58.667Z,32.65
2016-12-09T04:17:39.245Z,32.75
2016-12-09T04:18:19.769Z,32.84
2016-12-09T04:19:00.328Z,32.54
2016-12-09T04:19:40.846Z,32.94
2016-12-09T04:20:21.394Z,32.75
2016-12-09T04:21:01.943Z,32.65
2016-12-09T04:21:42.456Z,32.65
2016-12-09T04:22:23.003Z,32.84
2016-12-09T04:23:03.530Z,32.84
2016-12-09T04:23:44.070Z,32.56
2016-12-09T04:24:24.600Z,32.65
2016-12-09T04:25:05.128Z,32.84
2016-12-09T04:25:45.664Z,32.84
2016-12-09T04:26:26.198Z,32.46
2016-12-09T04:27:06.755Z,32.75
2016-12-09T04:27:47.264Z,32.56
2016-12-09T04:28:27.788Z,32.56
2016-12-09T04:29:08.346Z,32.84
2016-12-09T04:29:48.859Z,32.65
2016-12-09T04:30:29.402Z,32.65
2016-12-09T04:31:09.944Z,32.56
2016-12-09T04:31:50.476Z,32.75
2016-12-09T04:32:31.025Z,32.84
2016-12-09T04:33:11.550Z,32.84
2016-12-09T04:33:52.033Z,32.84
2016-12-09T04:34:32.569Z,32.65
2016-12-09T04:35:13.091Z,32.94
2016-12-09T04:35:53.577Z,32.65
2016-12-09T04:36:34.129Z,32.94
2016-12-09T04:37:14.668Z,32.94
2016-12-09T04:37:55.164Z,32.65
2016-12-09T04:38:35.698Z,32.65
2016-12-09T04:39:16.217Z,32.65
2016-12-09T04:39:56.752Z,32.75
2016-12-09T04:40:37.313Z,32.84
2016-12-09T04:41:17.859Z,32.75
2016-12-09T04:41:58.405Z,32.75
2016-12-09T04:42:38.972Z,32.75
2016-12-09T04:43:19.503Z,32.65
2016-12-09T04:44:00.015Z,33.03
2016-12-09T04:44:40.546Z,32.75
2016-12-09T04:45:21.076Z,32.65
2016-12-09T04:46:01.626Z,32.75
2016-12-09T04:46:42.170Z,32.56
2016-12-09T04:47:22.676Z,32.84
2016-12-09T04:48:03.230Z,32.84
2016-12-09T04:48:43.761Z,32.84
2016-12-09T04:49:24.303Z,32.65
2016-12-09T04:50:04.847Z,32.84
2016-12-09T04:50:45.362Z,32.84
2016-12-09T04:51:25.902Z,32.75
2016-12-09T04:52:06.424Z,32.84
2016-12-09T04:52:46.947Z,32.65
2016-12-09T04:53:27.495Z,32.84
2016-12-09T04:54:08.039Z,32.84
2016-12-09T04:54:48.572Z,32.94
2016-12-09T04:55:29.120Z,32.75
2016-12-09T04:56:09.676Z,32.92
2016-12-09T04:56:50.268Z,32.84
2016-12-09T04:57:30.796Z,32.84
2016-12-09T04:58:11.351Z,32.84
2016-12-09T04:58:51.895Z,32.94
2016-12-09T04:59:32.446Z,32.84
2016-12-09T05:00:12.984Z,32.84
2016-12-09T05:00:53.540Z,32.94
2016-12-09T05:01:34.030Z,33.03
2016-12-09T05:02:14.561Z,32.94
2016-12-09T05:02:55.092Z,32.94
2016-12-09T05:03:35.650Z,32.94
2016-12-09T05:04:16.188Z,32.94
2016-12-09T05:04:56.719Z,32.94
2016-12-09T05:05:37.238Z,32.94
2016-12-09T05:06:17.757Z,32.94
2016-12-09T05:06:58.289Z,33.03
2016-12-09T05:07:38.923Z,33.13
2016-12-09T05:08:19.462Z,33.02
2016-12-09T05:09:00.002Z,33.03
2016-12-09T05:09:40.526Z,33.33
2016-12-09T05:10:21.066Z,33.13
2016-12-09T05:11:01.598Z,32.94
2016-12-09T05:11:42.139Z,32.94
2016-12-09T05:12:22.688Z,33.03
2016-12-09T05:13:03.224Z,32.94
2016-12-09T05:13:43.758Z,33.13
2016-12-09T05:14:24.299Z,33.03
2016-12-09T05:15:04.828Z,33.03
2016-12-09T05:15:45.353Z,33.13
2016-12-09T05:16:25.872Z,33.03
2016-12-09T05:17:06.433Z,33.23
2016-12-09T05:17:46.968Z,33.23
2016-12-09T05:18:27.488Z,33.33
2016-12-09T05:19:08.045Z,33.33
2016-12-09T05:19:48.596Z,33.23
2016-12-09T05:20:29.121Z,33.23
2016-12-09T05:21:09.646Z,33.23
2016-12-09T05:21:50.242Z,33.33
2016-12-09T05:22:30.760Z,33.23
2016-12-09T05:23:11.316Z,33.23
2016-12-09T05:23:51.855Z,33.23
2016-12-09T05:24:32.357Z,33.23
2016-12-09T05:25:12.898Z,33.23
2016-12-09T05:25:53.443Z,33.33
2016-12-09T05:26:33.998Z,33.33
2016-12-09T05:27:14.552Z,33.42
2016-12-09T05:27:55.094Z,33.23
2016-12-09T05:28:35.656Z,33.42
2016-12-09T05:29:16.195Z,33.23
2016-12-09T05:29:56.753Z,33.23
2016-12-09T05:30:37.294Z,33.33
2016-12-09T05:31:17.824Z,33.23
2016-12-09T05:31:58.361Z,33.23
2016-12-09T05:32:38.897Z,33.33
2016-12-09T05:33:19.443Z,33.42
2016-12-09T05:34:00.003Z,33.33
2016-12-09T05:34:40.535Z,33.42
2016-12-09T05:35:21.080Z,33.61
2016-12-09T05:36:01.598Z,33.51
2016-12-09T05:36:42.127Z,33.42
2016-12-09T05:37:22.710Z,33.51
2016-12-09T05:38:03.246Z,33.13
2016-12-09T05:38:43.810Z,33.61
2016-12-09T05:39:24.358Z,33.42
2016-12-09T05:40:04.901Z,33.42
2016-12-09T05:40:45.475Z,33.42
2016-12-09T05:41:26.028Z,33.23
2016-12-09T05:42:06.562Z,33.23
2016-12-09T05:42:47.201Z,33.23
2016-12-09T05:43:27.734Z,33.42
2016-12-09T05:44:08.288Z,33.23
2016-12-09T05:44:48.820Z,33.42
2016-12-09T05:45:29.353Z,33.23
2016-12-09T05:46:09.876Z,33.13
2016-12-09T05:46:50.387Z,33.61
2016-12-09T05:47:30.957Z,33.23
2016-12-09T05:48:11.495Z,33.23
2016-12-09T05:48:52.036Z,33.23
2016-12-09T05:49:32.543Z,34
2016-12-09T05:50:13.106Z,33.42
2016-12-09T05:50:53.644Z,33.89
2016-12-09T05:51:34.184Z,33.61
2016-12-09T05:52:14.700Z,33.91
2016-12-09T05:52:55.224Z,33.51
2016-12-09T05:53:35.756Z,33.61
2016-12-09T05:54:16.278Z,34
2016-12-09T05:54:56.851Z,33.71
2016-12-09T05:55:37.400Z,33.81
2016-12-09T05:56:17.961Z,33.81
2016-12-09T05:56:58.521Z,33.71
2016-12-09T05:57:39.058Z,33.69
2016-12-09T05:58:19.599Z,33.91
2016-12-09T05:59:00.116Z,33.81
2016-12-09T05:59:40.632Z,33.91
2016-12-09T06:00:21.219Z,33.91
2016-12-09T06:01:01.718Z,33.91
2016-12-09T06:01:42.262Z,33.81
2016-12-09T06:02:22.785Z,33.81
2016-12-09T06:03:03.299Z,33.81
2016-12-09T06:03:43.832Z,33.81
2016-12-09T06:04:24.397Z,34
2016-12-09T06:05:04.920Z,33.81
2016-12-09T06:05:45.447Z,33.91
2016-12-09T06:06:25.977Z,33.91
2016-12-09T06:07:06.481Z,33.71
2016-12-09T06:07:47.032Z,33.91
2016-12-09T06:08:27.566Z,33.91
2016-12-09T06:09:08.096Z,33.81
2016-12-09T06:09:48.657Z,34
2016-12-09T06:10:29.184Z,34
2016-12-09T06:11:09.780Z,33.81
2016-12-09T06:11:50.336Z,33.81
2016-12-09T06:12:30.879Z,33.81
2016-12-09T06:13:11.434Z,34
2016-12-09T06:13:51.986Z,33.71
2016-12-09T06:14:32.514Z,33.81
2016-12-09T06:15:13.065Z,33.81
2016-12-09T06:15:53.609Z,34
2016-12-09T06:16:34.177Z,34
2016-12-09T06:17:14.733Z,34
2016-12-09T06:17:55.326Z,33.91
2016-12-09T06:18:35.852Z,33.91
2016-12-09T06:19:16.386Z,33.91
2016-12-09T06:19:56.934Z,33.91
2016-12-09T06:20:37.442Z,33.71
2016-12-09T06:21:17.965Z,33.81
2016-12-09T06:21:58.497Z,33.91
2016-12-09T06:22:39.014Z,33.81
2016-12-09T06:23:19.550Z,33.81
2016-12-09T06:24:00.106Z,33.71
2016-12-09T06:24:40.658Z,33.91
2016-12-09T06:25:21.197Z,33.81
2016-12-09T06:26:01.761Z,33.81
2016-12-09T06:26:42.306Z,33.91
2016-12-09T06:27:22.874Z,33.91
2016-12-09T06:28:03.435Z,33.81
2016-12-09T06:28:44.015Z,33.91
2016-12-09T06:29:24.539Z,33.81
2016-12-09T06:30:05.063Z,33.71
2016-12-09T06:30:45.597Z,33.91
2016-12-09T06:31:26.180Z,33.81
2016-12-09T06:32:06.718Z,33.61
2016-12-09T06:32:47.256Z,33.61
2016-12-09T06:33:27.819Z,33.71
2016-12-09T06:34:08.356Z,33.91
2016-12-09T06:34:48.971Z,33.91
2016-12-09T06:35:29.528Z,33.91
2016-12-09T06:36:10.080Z,33.91
2016-12-09T06:36:50.628Z,34
2016-12-09T06:37:31.152Z,33.91
2016-12-09T06:38:11.672Z,33.91
2016-12-09T06:38:52.219Z,33.91
2016-12-09T06:39:32.775Z,33.71
2016-12-09T06:40:13.262Z,34
2016-12-09T06:40:53.798Z,33.91
2016-12-09T06:41:34.344Z,33.91
2016-12-09T06:42:14.890Z,33.81
2016-12-09T06:42:55.435Z,33.81
2016-12-09T06:43:35.988Z,33.91
2016-12-09T06:44:16.559Z,33.81
2016-12-09T06:44:57.136Z,33.61
2016-12-09T06:45:37.679Z,34
2016-12-09T06:46:18.202Z,34
2016-12-09T06:46:58.730Z,33.91
2016-12-09T06:47:39.242Z,33.71
2016-12-09T06:48:19.821Z,34
2016-12-09T06:49:00.345Z,33.91
2016-12-09T06:49:40.835Z,33.71
2016-12-09T06:50:21.340Z,33.91
2016-12-09T06:51:01.857Z,33.91
2016-12-09T06:51:42.421Z,34
2016-12-09T06:52:22.943Z,34
2016-12-09T06:53:03.459Z,34.09
2016-12-09T06:53:44.019Z,33.91
2016-12-09T06:54:24.535Z,33.91
2016-12-09T06:55:05.095Z,34.09
2016-12-09T06:55:45.634Z,34.38
2016-12-09T06:56:26.156Z,34
2016-12-09T06:57:06.698Z,33.91
2016-12-09T06:57:47.253Z,33.81
2016-12-09T06:58:27.777Z,33.89
2016-12-09T06:59:08.290Z,34.09
2016-12-09T06:59:48.802Z,34.48
2016-12-09T07:00:29.349Z,34.38
2016-12-09T07:01:09.875Z,34.09
2016-12-09T07:01:50.414Z,34.09
2016-12-09T07:02:30.949Z,34.48
2016-12-09T07:03:11.480Z,33.81
2016-12-09T07:03:52.018Z,34.29
2016-12-09T07:04:32.536Z,34.29
2016-12-09T07:05:13.090Z,34.29
2016-12-09T07:05:53.597Z,33.81
2016-12-09T07:06:34.148Z,34.09
2016-12-09T07:07:14.636Z,34.29
2016-12-09T07:07:55.174Z,34.29
2016-12-09T07:08:35.683Z,34.29
2016-12-09T07:09:16.236Z,34.29
2016-12-09T07:09:56.767Z,34.38
2016-12-09T07:10:37.298Z,34.29
2016-12-09T07:11:17.841Z,34.38
2016-12-09T07:11:58.381Z,33.91
2016-12-09T07:12:38.897Z,34.38
2016-12-09T07:13:19.443Z,34.19
2016-12-09T07:13:59.982Z,34.29
2016-12-09T07:14:40.486Z,34.29
2016-12-09T07:15:21.022Z,34.19
2016-12-09T07:16:01.533Z,34.29
2016-12-09T07:16:42.044Z,34.38
2016-12-09T07:17:22.561Z,34.09
2016-12-09T07:18:03.065Z,34.29
2016-12-09T07:18:43.581Z,34.29
2016-12-09T07:19:24.112Z,34.19
2016-12-09T07:20:04.650Z,34.19
2016-12-09T07:20:45.184Z,34.19
2016-12-09T07:21:25.697Z,34.09
2016-12-09T07:22:06.264Z,34.19
2016-12-09T07:22:46.795Z,34.19
2016-12-09T07:23:27.350Z,34.29
2016-12-09T07:24:07.857Z,34.19
2016-12-09T07:24:48.398Z,34.19
2016-12-09T07:25:28.890Z,34.38
2016-12-09T07:26:09.407Z,34.19
2016-12-09T07:26:49.940Z,34.09
2016-12-09T07:27:30.472Z,34.29
2016-12-09T07:28:11.008Z,34
2016-12-09T07:28:51.549Z,34
2016-12-09T07:29:32.089Z,34
2016-12-09T07:30:12.639Z,34
2016-12-09T07:30:53.154Z,34.58
2016-12-09T07:31:33.687Z,34.38
2016-12-09T07:32:14.224Z,34.29
2016-12-09T07:32:54.747Z,34.58
2016-12-09T07:33:35.303Z,34.29
2016-12-09T07:34:15.829Z,34.29
2016-12-09T07:34:56.394Z,34.38
2016-12-09T07:35:36.923Z,34.48
2016-12-09T07:36:17.430Z,34.38
2016-12-09T07:36:57.969Z,34.48
2016-12-09T07:37:38.489Z,34.48
2016-12-09T07:38:19.021Z,34.38
2016-12-09T07:38:59.552Z,34.38
2016-12-09T07:39:40.096Z,34.38
2016-12-09T07:40:20.632Z,34.29
2016-12-09T07:41:01.144Z,34.38
2016-12-09T07:41:41.717Z,34.29
2016-12-09T07:42:22.265Z,34.38
2016-12-09T07:43:02.799Z,34
2016-12-09T07:43:43.345Z,34.29
2016-12-09T07:44:23.918Z,34.19
2016-12-09T07:45:04.449Z,34.38
2016-12-09T07:45:45.003Z,34.09
2016-12-09T07:46:25.567Z,34.19
2016-12-09T07:47:06.108Z,34.19
2016-12-09T07:47:46.660Z,34.38
2016-12-09T07:48:27.271Z,34.09
2016-12-09T07:49:07.900Z,34.19
2016-12-09T07:49:48.502Z,34.19
2016-12-09T07:50:29.022Z,34.19
2016-12-09T07:51:09.625Z,34.09
2016-12-09T07:51:50.178Z,34.19
2016-12-09T07:52:30.708Z,34.19
2016-12-09T07:53:11.241Z,34.09
2016-12-09T07:53:51.770Z,34.38
2016-12-09T07:54:32.305Z,34.38
2016-12-09T07:55:12.830Z,34.38
2016-12-09T07:55:53.338Z,34.19
2016-12-09T07:56:33.874Z,34.09
2016-12-09T07:57:14.444Z,34.09
2016-12-09T07:57:54.964Z,34.29
2016-12-09T07:58:35.477Z,34.19
2016-12-09T07:59:16.024Z,34.38
2016-12-09T07:59:56.532Z,34.29
2016-12-09T08:00:37.073Z,34.09
2016-12-09T08:01:17.589Z,34
2016-12-09T08:01:58.099Z,34.38
2016-12-09T08:02:38.637Z,34.38
2016-12-09T08:03:19.167Z,34.19
2016-12-09T08:03:59.687Z,34.29
2016-12-09T08:04:40.221Z,34.19
2016-12-09T08:05:20.714Z,34.19
2016-12-09T08:06:01.245Z,34.19
2016-12-09T08:06:41.768Z,34.38
2016-12-09T08:07:22.314Z,34
2016-12-09T08:08:02.845Z,34.38
2016-12-09T08:08:43.374Z,34.29
2016-12-09T08:09:23.945Z,34
2016-12-09T08:10:04.464Z,34.38
2016-12-09T08:10:44.991Z,34.29
2016-12-09T08:11:25.547Z,34.38
2016-12-09T08:12:06.085Z,34.38
2016-12-09T08:12:46.657Z,34.09
2016-12-09T08:13:27.183Z,34.38
2016-12-09T08:14:07.722Z,34.38
2016-12-09T08:14:48.260Z,34.19
2016-12-09T08:15:28.785Z,34.19
2016-12-09T08:16:09.293Z,34.19
2016-12-09T08:16:49.818Z,34.38
2016-12-09T08:17:30.367Z,34.19
2016-12-09T08:18:10.857Z,34.29
2016-12-09T08:18:51.415Z,34.38
2016-12-09T08:19:31.956Z,34.19
2016-12-09T08:20:12.485Z,34.09
2016-12-09T08:20:53.058Z,34.19
2016-12-09T08:21:33.580Z,34.19
2016-12-09T08:22:14.103Z,34
2016-12-09T08:22:54.628Z,34.29
2016-12-09T08:23:35.139Z,34.29
2016-12-09T08:24:15.688Z,34.38
2016-12-09T08:24:56.242Z,34.38
2016-12-09T08:25:36.748Z,34.38
2016-12-09T08:26:17.287Z,34.19
2016-12-09T08:26:57.828Z,34.29
2016-12-09T08:27:38.362Z,34.19
2016-12-09T08:28:18.896Z,34.38
2016-12-09T08:28:59.438Z,34.48
2016-12-09T08:29:39.966Z,34.29
2016-12-09T08:30:20.501Z,34.38
2016-12-09T08:31:01.059Z,34.19
2016-12-09T08:31:41.609Z,34.38
2016-12-09T08:32:22.133Z,34.38
2016-12-09T08:33:02.669Z,34.38
2016-12-09T08:33:43.199Z,34.38
2016-12-09T08:34:23.723Z,34
2016-12-09T08:35:04.274Z,34.48
2016-12-09T08:35:44.809Z,34.29
2016-12-09T08:36:25.326Z,34.58
2016-12-09T08:37:05.872Z,34.38
2016-12-09T08:37:46.399Z,34.38
2016-12-09T08:38:26.922Z,34.48
2016-12-09T08:39:07.477Z,34.58
2016-12-09T08:39:47.997Z,34.38
2016-12-09T08:40:28.504Z,34.38
2016-12-09T08:41:09.048Z,34.58
2016-12-09T08:41:49.602Z,34.38
2016-12-09T08:42:30.087Z,34.38
2016-12-09T08:43:10.608Z,34.48
2016-12-09T08:43:51.170Z,34.29